Time,TemperatureF,DewpointF,PressureIn,WindDirection,WindDirectionDegrees,WindSpeedMPH,WindSpeedGustMPH,Humidity,HourlyPrecipIn,Conditions,Clouds,dailyrainin,SolarRadiationWatts/m^2,SoftwareType,DateUTC
2013-03-21 00:01:00,2.0,-10.0,29.81,SSW,205,1.0,2.0,54,-99.99,,,-99.99,0.000000,,2013-03-21 08:01:00,
2013-03-21 00:12:00,2.0,-10.0,29.81,SSW,194,1.0,3.0,55,-99.99,,,-99.99,0.000000,,2013-03-21 08:12:00,
2013-03-21 00:22:00,2.0,-11.0,29.81,ENE,59,2.0,3.0,54,-99.99,,,-99.99,0.000000,,2013-03-21 08:22:00,
2013-03-21 00:32:00,1.0,-11.0,29.82,East,83,2.0,4.0,54,-99.99,,,-99.99,0.000000,,2013-03-21 08:32:00,
2013-03-21 00:41:00,2.0,-11.0,29.82,SSE,157,2.0,4.0,53,-99.99,,,-99.99,0.000000,,2013-03-21 08:41:00,
2013-03-21 00:51:00,2.0,-11.0,29.83,SSE,168,2.0,4.0,53,-99.99,,,-99.99,0.000000,,2013-03-21 08:51:00,
2013-03-21 01:01:00,2.0,-11.0,29.83,South,177,1.0,2.0,53,-99.99,,,-99.99,0.000000,,2013-03-21 09:01:00,
2013-03-21 01:11:00,2.0,-11.0,29.83,SSE,150,2.0,3.0,52,-99.99,,,-99.99,0.000000,,2013-03-21 09:11:00,
2013-03-21 01:21:00,3.0,-11.0,29.83,SE,132,2.0,3.0,51,-99.99,,,-99.99,0.000000,,2013-03-21 09:21:00,
2013-03-21 01:33:00,3.0,-10.0,29.84,ESE,123,2.0,2.0,52,-99.99,,,-99.99,0.000000,,2013-03-21 09:33:00,
2013-03-21 01:43:00,3.0,-11.0,29.84,NE,37,1.0,2.0,51,-99.99,,,-99.99,0.000000,,2013-03-21 09:43:00,
2013-03-21 01:53:00,3.0,-11.0,29.84,ENE,75,0.0,2.0,51,-99.99,,,-99.99,0.000000,,2013-03-21 09:53:00,
2013-03-21 02:02:00,3.0,-10.0,29.84,SE,144,3.0,4.0,54,-99.99,,,-99.99,0.000000,,2013-03-21 10:02:00,
2013-03-21 02:12:00,5.0,-8.0,29.85,SSE,164,5.0,5.0,55,-99.99,,,-99.99,0.000000,,2013-03-21 10:12:00,
2013-03-21 02:22:00,5.0,-6.0,29.85,SSE,165,3.0,4.0,59,-99.99,,,-99.99,0.000000,,2013-03-21 10:22:00,
2013-03-21 02:32:00,6.0,-5.0,29.85,North,11,1.0,4.0,60,-99.99,,,-99.99,0.000000,,2013-03-21 10:32:00,
2013-03-21 02:42:00,4.0,-10.0,29.85,SE,131,1.0,2.0,52,-99.99,,,-99.99,0.000000,,2013-03-21 10:42:00,
2013-03-21 02:52:00,2.0,-8.0,29.87,SSE,159,2.0,2.0,60,-99.99,,,-99.99,0.000000,,2013-03-21 10:52:00,
2013-03-21 03:02:00,3.0,-6.0,29.87,SE,131,3.0,4.0,64,-99.99,,,-99.99,0.000000,,2013-03-21 11:02:00,
2013-03-21 03:11:00,3.0,-7.0,29.88,NE,36,1.0,3.0,63,-99.99,,,-99.99,0.000000,,2013-03-21 11:11:00,
2013-03-21 03:22:00,2.0,-7.0,29.88,ESE,117,4.0,5.0,65,-99.99,,,-99.99,0.000000,,2013-03-21 11:22:00,
2013-03-21 03:32:00,2.0,-7.0,29.88,ESE,113,4.0,4.0,62,-99.99,,,-99.99,0.100000,,2013-03-21 11:32:00,
2013-03-21 03:42:00,3.0,-8.0,29.89,SE,125,4.0,5.0,59,-99.99,,,-99.99,0.000000,,2013-03-21 11:42:00,
2013-03-21 03:52:00,4.0,-5.0,29.89,SSE,152,2.0,3.0,64,-99.99,,,-99.99,0.000000,,2013-03-21 11:52:00,
2013-03-21 04:01:00,3.0,-7.0,29.89,ENE,76,1.0,2.0,63,-99.99,,,-99.99,0.000000,,2013-03-21 12:01:00,
2013-03-21 04:11:00,2.0,-5.0,29.89,North,0,0.0,0.0,70,-99.99,,,-99.99,0.000000,,2013-03-21 12:11:00,
2013-03-21 04:21:00,1.0,-7.0,29.90,NNE,16,0.0,1.0,69,-99.99,,,-99.99,0.000000,,2013-03-21 12:21:00,
2013-03-21 04:32:00,0.0,-8.0,29.90,SSE,151,0.0,1.0,68,-99.99,,,-99.99,0.000000,,2013-03-21 12:32:00,
2013-03-21 04:41:00,-1.0,-8.0,29.90,South,184,1.0,4.0,70,-99.99,,,-99.99,0.000000,,2013-03-21 12:41:00,
2013-03-21 04:52:00,-1.0,-8.0,29.90,SSE,167,4.0,5.0,72,-99.99,,,-99.99,0.000000,,2013-03-21 12:52:00,
2013-03-21 05:02:00,0.0,-7.0,29.90,South,169,4.0,5.0,73,-99.99,,,-99.99,0.000000,,2013-03-21 13:02:00,
2013-03-21 05:11:00,0.0,-6.0,29.90,SSE,165,3.0,4.0,73,-99.99,,,-99.99,0.000000,,2013-03-21 13:11:00,
2013-03-21 05:21:00,1.0,-6.0,29.90,SSE,159,4.0,4.0,71,-99.99,,,-99.99,0.000000,,2013-03-21 13:21:00,
2013-03-21 05:32:00,2.0,-5.0,29.90,SSE,165,2.0,3.0,71,-99.99,,,-99.99,0.000000,,2013-03-21 13:32:00,
2013-03-21 05:42:00,1.0,-7.0,29.90,SSE,155,4.0,6.0,68,-99.99,,,-99.99,0.000000,,2013-03-21 13:42:00,
2013-03-21 05:52:00,-1.0,-9.0,29.90,SSE,166,6.0,6.0,68,-99.99,,,-99.99,0.000000,,2013-03-21 13:52:00,
2013-03-21 06:02:00,-1.0,-9.0,29.90,South,191,4.0,5.0,71,-99.99,,,-99.99,0.000000,,2013-03-21 14:02:00,
2013-03-21 06:11:00,-1.0,-7.0,29.91,South,187,2.0,2.0,73,-99.99,,,-99.99,0.000000,,2013-03-21 14:11:00,
2013-03-21 06:21:00,0.0,-6.0,29.91,South,174,4.0,5.0,74,-99.99,,,-99.99,0.000000,,2013-03-21 14:21:00,
2013-03-21 06:32:00,0.0,-6.0,29.91,South,174,4.0,5.0,74,-99.99,,,-99.99,0.000000,,2013-03-21 14:32:00,
2013-03-21 06:42:00,1.0,-6.0,29.92,SSE,165,3.0,4.0,71,-99.99,,,-99.99,0.000000,,2013-03-21 14:42:00,
2013-03-21 06:51:00,2.0,-6.0,29.92,SSE,155,6.0,7.0,68,-99.99,,,-99.99,0.000000,,2013-03-21 14:51:00,
2013-03-21 07:02:00,2.0,-6.0,29.92,SSE,155,6.0,7.0,68,-99.99,,,-99.99,0.000000,,2013-03-21 15:02:00,
2013-03-21 07:12:00,2.0,-6.0,29.92,SSE,154,6.0,7.0,68,-99.99,,,-99.99,0.000000,,2013-03-21 15:12:00,
2013-03-21 07:21:00,2.0,-6.0,29.92,SSE,153,7.0,9.0,67,-99.99,,,-99.99,0.200000,,2013-03-21 15:21:00,
2013-03-21 07:32:00,3.0,-6.0,29.92,SSE,156,6.0,8.0,65,-99.99,,,-99.99,0.600000,,2013-03-21 15:32:00,
2013-03-21 07:42:00,3.0,-7.0,29.92,SSE,155,7.0,10.0,63,-99.99,,,-99.99,1.600000,,2013-03-21 15:42:00,
2013-03-21 07:52:00,4.0,-7.0,29.93,SSE,157,5.0,8.0,60,-99.99,,,-99.99,3.400000,,2013-03-21 15:52:00,
2013-03-21 08:03:00,3.0,-7.0,29.93,SSE,167,2.0,4.0,59,-99.99,,,-99.99,4.500000,,2013-03-21 16:03:00,
2013-03-21 08:12:00,2.0,-8.0,29.93,SSW,200,2.0,5.0,60,-99.99,,,-99.99,10.300000,,2013-03-21 16:12:00,
2013-03-21 08:22:00,2.0,-8.0,29.93,South,173,2.0,4.0,61,-99.99,,,-99.99,17.200001,,2013-03-21 16:22:00,
2013-03-21 08:32:00,3.0,-8.0,29.93,WNW,292,1.0,3.0,59,-99.99,,,-99.99,22.799999,,2013-03-21 16:32:00,
2013-03-21 08:41:00,2.0,-10.0,29.94,ENE,65,2.0,3.0,58,-99.99,,,-99.99,29.400000,,2013-03-21 16:41:00,
2013-03-21 08:52:00,2.0,-9.0,29.94,East,82,2.0,4.0,60,-99.99,,,-99.99,38.799999,,2013-03-21 16:52:00,
2013-03-21 09:02:00,2.0,-9.0,29.94,South,172,0.0,2.0,59,-99.99,,,-99.99,44.500000,,2013-03-21 17:02:00,
2013-03-21 09:11:00,2.0,-10.0,29.94,NE,34,2.0,4.0,57,-99.99,,,-99.99,90.900002,,2013-03-21 17:11:00,
2013-03-21 09:22:00,2.0,-10.0,29.95,East,86,3.0,4.0,56,-99.99,,,-99.99,105.300003,,2013-03-21 17:22:00,
2013-03-21 09:32:00,3.0,-10.0,29.95,South,184,2.0,3.0,54,-99.99,,,-99.99,138.000000,,2013-03-21 17:32:00,
2013-03-21 09:42:00,3.0,-9.0,29.95,SE,144,2.0,3.0,56,-99.99,,,-99.99,147.000000,,2013-03-21 17:42:00,
2013-03-21 09:52:00,5.0,-9.0,29.95,East,91,1.0,3.0,51,-99.99,,,-99.99,164.300003,,2013-03-21 17:52:00,
2013-03-21 10:02:00,6.0,-9.0,29.95,East,88,1.0,3.0,49,-99.99,,,-99.99,184.699997,,2013-03-21 18:02:00,
2013-03-21 10:11:00,7.0,-10.0,29.95,NW,317,1.0,2.0,45,-99.99,,,-99.99,208.100006,,2013-03-21 18:11:00,
2013-03-21 10:21:00,6.0,-10.0,29.95,East,79,2.0,3.0,45,-99.99,,,-99.99,194.699997,,2013-03-21 18:21:00,
2013-03-21 10:32:00,4.0,-10.0,29.95,ENE,75,4.0,6.0,53,-99.99,,,-99.99,215.500000,,2013-03-21 18:32:00,
2013-03-21 10:40:00,4.0,-10.0,29.96,NE,47,3.0,4.0,49,-99.99,,,-99.99,266.299988,,2013-03-21 18:40:00,
2013-03-21 10:42:00,4.0,-9.0,29.95,NE,56,3.0,5.0,51,-99.99,,,-99.99,265.899994,,2013-03-21 18:42:00,
2013-03-21 10:52:00,5.0,-10.0,29.96,NE,34,2.0,4.0,48,-99.99,,,-99.99,276.299988,,2013-03-21 18:52:00,
2013-03-21 11:02:00,4.0,-10.0,29.96,NE,47,3.0,4.0,49,-99.99,,,-99.99,266.299988,,2013-03-21 19:02:00,
2013-03-21 11:11:00,4.0,-10.0,29.96,NE,47,3.0,4.0,49,-99.99,,,-99.99,266.299988,,2013-03-21 19:11:00,
2013-03-21 11:21:00,4.0,-10.0,29.96,NE,47,3.0,4.0,49,-99.99,,,-99.99,266.299988,,2013-03-21 19:21:00,
2013-03-21 11:31:00,4.0,-10.0,29.96,NE,47,3.0,4.0,49,-99.99,,,-99.99,266.299988,,2013-03-21 19:31:00,
2013-03-21 12:52:00,9.0,-8.0,29.97,NNE,18,1.0,2.0,44,-99.99,,,-99.99,433.299988,,2013-03-21 20:52:00,
2013-03-21 13:02:00,10.0,-8.0,29.97,East,101,0.0,2.0,44,-99.99,,,-99.99,440.600006,,2013-03-21 21:02:00,
2013-03-21 13:12:00,10.0,-8.0,29.97,ENE,62,1.0,2.0,43,-99.99,,,-99.99,448.899994,,2013-03-21 21:12:00,
2013-03-21 13:22:00,11.0,-7.0,29.97,NNE,26,2.0,4.0,42,-99.99,,,-99.99,454.000000,,2013-03-21 21:22:00,
2013-03-21 13:32:00,12.0,-7.0,29.97,NNW,327,1.0,3.0,42,-99.99,,,-99.99,459.100006,,2013-03-21 21:32:00,
2013-03-21 13:42:00,12.0,-7.0,29.97,North,349,2.0,3.0,41,-99.99,,,-99.99,461.700012,,2013-03-21 21:42:00,
2013-03-21 13:52:00,12.0,-6.0,29.97,ENE,68,2.0,3.0,42,-99.99,,,-99.99,463.700012,,2013-03-21 21:52:00,
2013-03-21 14:02:00,13.0,-6.0,29.97,ENE,70,2.0,4.0,41,-99.99,,,-99.99,464.899994,,2013-03-21 22:02:00,
2013-03-21 14:12:00,13.0,-6.0,29.97,East,92,4.0,6.0,42,-99.99,,,-99.99,465.500000,,2013-03-21 22:12:00,
2013-03-21 14:22:00,13.0,-5.0,29.97,East,96,4.0,6.0,42,-99.99,,,-99.99,464.600006,,2013-03-21 22:22:00,
2013-03-21 14:33:00,13.0,-6.0,29.97,ESE,105,2.0,4.0,41,-99.99,,,-99.99,464.200012,,2013-03-21 22:33:00,
2013-03-21 14:42:00,14.0,-6.0,29.97,East,101,3.0,6.0,40,-99.99,,,-99.99,461.700012,,2013-03-21 22:42:00,
2013-03-21 14:52:00,14.0,-5.0,29.96,ESE,108,5.0,7.0,41,-99.99,,,-99.99,457.200012,,2013-03-21 22:52:00,
2013-03-21 15:02:00,13.0,-5.0,29.96,ESE,104,5.0,7.0,42,-99.99,,,-99.99,451.799988,,2013-03-21 23:02:00,
2013-03-21 15:11:00,14.0,-5.0,29.96,SE,127,5.0,6.0,43,-99.99,,,-99.99,445.899994,,2013-03-21 23:11:00,
2013-03-21 15:21:00,14.0,-5.0,29.96,ESE,122,4.0,6.0,41,-99.99,,,-99.99,438.899994,,2013-03-21 23:21:00,
2013-03-21 15:32:00,14.0,-5.0,29.96,ESE,120,4.0,7.0,40,-99.99,,,-99.99,430.899994,,2013-03-21 23:32:00,
2013-03-21 15:42:00,14.0,-6.0,29.96,ESE,112,4.0,6.0,39,-99.99,,,-99.99,422.899994,,2013-03-21 23:42:00,
2013-03-21 15:52:00,15.0,-7.0,29.96,East,96,4.0,6.0,37,-99.99,,,-99.99,413.000000,,2013-03-21 23:52:00,
2013-03-21 16:02:00,15.0,-6.0,29.95,ESE,112,3.0,6.0,37,-99.99,,,-99.99,403.700012,,2013-03-22 00:02:00,
2013-03-21 16:11:00,15.0,-7.0,29.96,ESE,110,2.0,4.0,36,-99.99,,,-99.99,394.000000,,2013-03-22 00:11:00,
2013-03-21 16:21:00,16.0,-7.0,29.96,NW,325,1.0,4.0,34,-99.99,,,-99.99,357.700012,,2013-03-22 00:21:00,
2013-03-21 16:31:00,17.0,-7.0,29.96,WNW,293,3.0,5.0,33,-99.99,,,-99.99,332.299988,,2013-03-22 00:31:00,
2013-03-21 16:41:00,17.0,-7.0,29.96,WNW,301,0.0,3.0,33,-99.99,,,-99.99,301.299988,,2013-03-22 00:41:00,
2013-03-21 16:51:00,17.0,-6.0,29.96,NW,306,2.0,5.0,34,-99.99,,,-99.99,291.799988,,2013-03-22 00:51:00,
2013-03-21 17:02:00,17.0,-6.0,29.96,North,358,2.0,4.0,35,-99.99,,,-99.99,275.899994,,2013-03-22 01:02:00,
2013-03-21 17:11:00,16.0,-7.0,29.95,SE,130,1.0,3.0,35,-99.99,,,-99.99,272.899994,,2013-03-22 01:11:00,
2013-03-21 17:21:00,16.0,-7.0,29.95,South,171,2.0,4.0,34,-99.99,,,-99.99,255.300003,,2013-03-22 01:21:00,
2013-03-21 17:32:00,17.0,-6.0,29.95,West,259,3.0,5.0,35,-99.99,,,-99.99,171.500000,,2013-03-22 01:32:00,
2013-03-21 17:42:00,17.0,-6.0,29.95,WSW,247,2.0,3.0,35,-99.99,,,-99.99,165.699997,,2013-03-22 01:42:00,
2013-03-21 17:51:00,17.0,-5.0,29.95,SSW,209,5.0,9.0,37,-99.99,,,-99.99,201.399994,,2013-03-22 01:51:00,
2013-03-21 18:02:00,16.0,-5.0,29.94,SW,220,5.0,9.0,37,-99.99,,,-99.99,193.800003,,2013-03-22 02:02:00,
2013-03-21 18:11:00,17.0,-6.0,29.94,SSW,197,4.0,8.0,36,-99.99,,,-99.99,191.100006,,2013-03-22 02:11:00,
2013-03-21 18:21:00,16.0,-5.0,29.94,SSW,199,6.0,11.0,36,-99.99,,,-99.99,191.500000,,2013-03-22 02:21:00,
2013-03-21 18:31:00,16.0,-5.0,29.94,SSW,207,3.0,7.0,38,-99.99,,,-99.99,120.099998,,2013-03-22 02:31:00,
2013-03-21 18:41:00,15.0,-6.0,29.93,SE,142,2.0,5.0,38,-99.99,,,-99.99,87.900002,,2013-03-22 02:41:00,
2013-03-21 18:51:00,15.0,-6.0,29.93,SSE,155,7.0,14.0,39,-99.99,,,-99.99,110.000000,,2013-03-22 02:51:00,
2013-03-21 19:02:00,16.0,-6.0,29.93,SSW,211,3.0,6.0,37,-99.99,,,-99.99,99.500000,,2013-03-22 03:02:00,
2013-03-21 19:11:00,14.0,-5.0,29.93,SSE,166,4.0,8.0,40,-99.99,,,-99.99,67.900002,,2013-03-22 03:11:00,
2013-03-21 19:21:00,14.0,-5.0,29.93,SE,145,4.0,8.0,40,-99.99,,,-99.99,52.700001,,2013-03-22 03:21:00,
2013-03-21 19:32:00,13.0,-5.0,29.94,South,171,4.0,6.0,44,-99.99,,,-99.99,31.600000,,2013-03-22 03:32:00,
2013-03-21 19:42:00,13.0,-5.0,29.94,South,171,4.0,6.0,44,-99.99,,,-99.99,31.600000,,2013-03-22 03:42:00,
2013-03-21 19:52:00,13.0,-5.0,29.93,South,169,9.0,15.0,44,-99.99,,,-99.99,17.100000,,2013-03-22 03:52:00,
2013-03-21 20:03:00,13.0,-5.0,29.93,South,185,10.0,19.0,44,-99.99,,,-99.99,12.000000,,2013-03-22 04:03:00,
2013-03-21 20:12:00,13.0,-6.0,29.93,SSW,211,13.0,23.0,42,-99.99,,,-99.99,6.200000,,2013-03-22 04:12:00,
2013-03-21 20:22:00,13.0,-6.0,29.92,SW,227,15.0,31.0,42,-99.99,,,-99.99,3.400000,,2013-03-22 04:22:00,
2013-03-21 20:32:00,13.0,-6.0,29.92,SW,221,15.0,29.0,42,-99.99,,,-99.99,1.800000,,2013-03-22 04:32:00,
2013-03-21 20:42:00,13.0,-6.0,29.91,SW,215,17.0,32.0,41,-99.99,,,-99.99,0.900000,,2013-03-22 04:42:00,
2013-03-21 20:52:00,13.0,-6.0,29.91,SSW,212,19.0,30.0,40,-99.99,,,-99.99,0.300000,,2013-03-22 04:52:00,
2013-03-21 21:02:00,13.0,-6.0,29.91,SSW,208,19.0,35.0,40,-99.99,,,-99.99,0.100000,,2013-03-22 05:02:00,
2013-03-21 21:11:00,13.0,-7.0,29.91,SW,220,18.0,32.0,39,-99.99,,,-99.99,0.100000,,2013-03-22 05:11:00,
2013-03-21 21:21:00,13.0,-6.0,29.91,SW,216,16.0,30.0,40,-99.99,,,-99.99,0.000000,,2013-03-22 05:21:00,
2013-03-21 21:32:00,13.0,-7.0,29.90,SSW,211,18.0,29.0,39,-99.99,,,-99.99,0.000000,,2013-03-22 05:32:00,
2013-03-21 21:41:00,14.0,-7.0,29.90,SSW,209,17.0,32.0,39,-99.99,,,-99.99,0.100000,,2013-03-22 05:41:00,
2013-03-21 21:52:00,14.0,-6.0,29.90,SSW,211,17.0,31.0,39,-99.99,,,-99.99,0.000000,,2013-03-22 05:52:00,
2013-03-21 22:02:00,14.0,-6.0,29.91,SSW,210,16.0,26.0,39,-99.99,,,-99.99,0.000000,,2013-03-22 06:02:00,
2013-03-21 22:12:00,14.0,-6.0,29.90,SSW,211,18.0,28.0,38,-99.99,,,-99.99,0.000000,,2013-03-22 06:12:00,
2013-03-21 22:21:00,14.0,-6.0,29.90,SSW,210,16.0,27.0,40,-99.99,,,-99.99,0.000000,,2013-03-22 06:21:00,
2013-03-21 22:32:00,14.0,-6.0,29.89,SSW,213,17.0,33.0,38,-99.99,,,-99.99,0.000000,,2013-03-22 06:32:00,
2013-03-21 22:41:00,14.0,-6.0,29.89,SSW,213,17.0,27.0,38,-99.99,,,-99.99,0.000000,,2013-03-22 06:41:00,
2013-03-21 22:51:00,14.0,-6.0,29.88,SSW,212,18.0,36.0,38,-99.99,,,-99.99,0.100000,,2013-03-22 06:51:00,
2013-03-21 23:02:00,14.0,-7.0,29.88,SW,214,17.0,30.0,38,-99.99,,,-99.99,0.100000,,2013-03-22 07:02:00,
2013-03-21 23:11:00,14.0,-7.0,29.87,SSW,212,17.0,30.0,38,-99.99,,,-99.99,0.000000,,2013-03-22 07:11:00,
2013-03-21 23:21:00,15.0,-7.0,29.87,SSW,207,19.0,35.0,37,-99.99,,,-99.99,0.100000,,2013-03-22 07:21:00,
2013-03-21 23:32:00,15.0,-7.0,29.87,SSW,210,19.0,32.0,37,-99.99,,,-99.99,0.100000,,2013-03-22 07:32:00,
2013-03-21 23:41:00,15.0,-6.0,29.87,SSW,206,18.0,30.0,37,-99.99,,,-99.99,0.100000,,2013-03-22 07:41:00,
2013-03-21 23:52:00,16.0,-6.0,29.87,SSW,207,18.0,34.0,37,-99.99,,,-99.99,0.100000,,2013-03-22 07:52:00,